Terminal Aerodrome Forecast
Issued by NWS

Home | Current Version | Previous Version | Text Only | Print | Product List | Glossary On
Versions: 1 2 3 4 5 6 7 8 9 10 11 12 13 14 15 16 17 18 19 20 21
000
FTUS42 KMLB 281730
TAFFPR
TAF
KFPR 281730Z 2818/0118 11011KT P6SM FEW040 BKN060
     FM010200 12006KT P6SM SCT040
     FM010800 16003KT P6SM SCT020
     FM011400 14010KT P6SM SCT020 BKN040=

USA.gov is the U.S. government's official web portal to all federal, state and local government web resources and services.